Time;durP1;ratioP1;P1;durP2;ratioP2;P2;SDS_P1;SDS_P2;PMS_P1;PMS_P2;Temp;Humidity;BMP_temperature;BMP_pressure;BME280_temperature;BME280_humidity;BME280_pressure;Samples;Min_cycle;Max_cycle;Signal;HPM_P1;HPM_P2
2022/11/11 00:01:33;;;;;;;4.90;1.00;;;;;;;;;;5031494;28;20038;-73
2022/11/11 00:03:59;;;;;;;6.57;1.08;;;;;;;;;;5031732;28;20503;-72
2022/11/11 00:06:25;;;;;;;5.95;1.30;;;;;;;;;;5031532;28;20477;-72
2022/11/11 00:08:52;;;;;;;5.80;1.30;;;;;;;;;;5031893;28;20046;-72
2022/11/11 00:11:18;;;;;;;5.57;1.10;;;;;;;;;;5031865;28;20053;-72
2022/11/11 00:13:44;;;;;;;5.22;1.50;;;;;;;;;;5031871;28;20408;-72
2022/11/11 00:16:12;;;;;;;5.35;1.35;;;;;;;;;;5032042;28;20051;-73
2022/11/11 00:27:14;;;;;;;4.55;1.20;;;;;;;;;;5035362;28;20558;-72
2022/11/11 00:29:44;;;;;;;5.85;1.30;;;;;;;;;;5045843;28;20037;-72
2022/11/11 00:32:23;;;;;;;5.68;1.10;;;;;;;;;;5043080;28;20053;-72
2022/11/11 00:37:35;;;;;;;6.82;1.55;;;;;;;;;;5051282;28;20128;-72
2022/11/11 00:40:02;;;;;;;5.00;1.30;;;;;;;;;;5051472;28;20048;-72
2022/11/11 00:42:29;;;;;;;5.78;1.42;;;;;;;;;;5051170;28;20057;-72
2022/11/11 00:44:55;;;;;;;7.25;1.50;;;;;;;;;;5051629;28;20067;-72
2022/11/11 00:52:54;;;;;;;7.90;1.50;;;;;;;;;;5052130;28;20041;-72
2022/11/11 00:55:21;;;;;;;8.73;1.58;;;;;;;;;;5050723;28;20083;-73
2022/11/11 00:57:47;;;;;;;3.80;1.42;;;;;;;;;;5051974;28;20057;-72
2022/11/11 01:00:14;;;;;;;5.75;1.60;;;;;;;;;;5051805;28;20055;-72
2022/11/11 01:02:40;;;;;;;7.40;1.55;;;;;;;;;;5051804;28;20041;-72
2022/11/11 01:05:07;;;;;;;5.25;1.73;;;;;;;;;;5051878;28;20053;-73
2022/11/11 01:07:33;;;;;;;7.22;1.98;;;;;;;;;;5049467;28;20053;-72
2022/11/11 01:10:00;;;;;;;6.80;1.65;;;;;;;;;;5051512;28;20063;-72
2022/11/11 01:12:26;;;;;;;7.93;1.50;;;;;;;;;;5051905;28;20049;-72
2022/11/11 01:14:53;;;;;;;6.88;1.80;;;;;;;;;;5051530;28;20424;-72
2022/11/11 01:17:19;;;;;;;5.03;1.38;;;;;;;;;;5051575;28;20060;-72
2022/11/11 01:19:45;;;;;;;7.03;1.70;;;;;;;;;;5051668;28;20126;-72
2022/11/11 01:22:12;;;;;;;6.63;2.00;;;;;;;;;;5051357;28;20524;-72
2022/11/11 01:24:38;;;;;;;8.27;1.85;;;;;;;;;;5051753;28;20041;-72
2022/11/11 01:27:05;;;;;;;8.77;2.08;;;;;;;;;;5051393;28;20045;-72
2022/11/11 01:29:31;;;;;;;9.02;2.05;;;;;;;;;;5051651;28;20041;-72
2022/11/11 01:31:58;;;;;;;5.25;1.80;;;;;;;;;;5051349;28;20122;-72
2022/11/11 01:34:24;;;;;;;8.00;1.77;;;;;;;;;;5051254;28;20374;-73
2022/11/11 01:36:50;;;;;;;7.55;2.15;;;;;;;;;;5051635;28;20132;-73
2022/11/11 01:39:17;;;;;;;7.25;1.90;;;;;;;;;;5051244;28;20055;-73
2022/11/11 01:41:44;;;;;;;6.28;1.75;;;;;;;;;;5051317;28;20048;-73
2022/11/11 01:44:10;;;;;;;6.97;1.83;;;;;;;;;;5051123;28;20132;-73
2022/11/11 01:46:37;;;;;;;5.50;1.88;;;;;;;;;;5051458;28;20051;-73
2022/11/11 01:49:18;;;;;;;5.18;1.70;;;;;;;;;;5051167;28;20516;-73
2022/11/11 01:51:50;;;;;;;5.38;1.50;;;;;;;;;;5051259;28;20081;-73
2022/11/11 01:54:46;;;;;;;8.48;2.00;;;;;;;;;;5051150;28;20057;-73
2022/11/11 01:57:18;;;;;;;6.90;1.70;;;;;;;;;;5050719;28;20092;-73
2022/11/11 01:59:48;;;;;;;3.85;1.40;;;;;;;;;;5051193;28;20045;-73
2022/11/11 02:02:18;;;;;;;5.28;1.67;;;;;;;;;;5051039;28;20050;-73
2022/11/11 02:07:30;;;;;;;11.10;2.50;;;;;;;;;;5051363;28;20049;-73
2022/11/11 02:09:57;;;;;;;9.90;2.00;;;;;;;;;;5050878;28;20091;-73
2022/11/11 02:15:08;;;;;;;7.75;2.35;;;;;;;;;;5044576;28;20049;-72
2022/11/11 02:17:35;;;;;;;9.57;1.90;;;;;;;;;;5051118;28;20106;-72
2022/11/11 02:20:02;;;;;;;7.95;1.95;;;;;;;;;;5054784;28;20049;-72
2022/11/11 02:22:47;;;;;;;6.55;1.83;;;;;;;;;;5055070;28;20119;-72
2022/11/11 02:25:16;;;;;;;9.70;2.30;;;;;;;;;;5047146;28;20080;-72
2022/11/11 02:27:44;;;;;;;5.78;1.98;;;;;;;;;;5053895;28;20103;-72
2022/11/11 02:30:15;;;;;;;6.50;1.95;;;;;;;;;;5054671;28;20049;-73
2022/11/11 02:32:47;;;;;;;7.53;2.05;;;;;;;;;;5053097;28;20128;-73
2022/11/11 02:35:18;;;;;;;9.77;2.28;;;;;;;;;;5054286;28;20480;-72
2022/11/11 02:37:45;;;;;;;7.07;1.95;;;;;;;;;;5054326;28;20059;-72
2022/11/11 02:40:15;;;;;;;6.85;2.08;;;;;;;;;;5054231;28;20060;-73
2022/11/11 02:42:41;;;;;;;6.80;1.80;;;;;;;;;;5054471;28;20053;-73
2022/11/11 02:45:08;;;;;;;8.32;1.80;;;;;;;;;;5054310;28;20136;-73
2022/11/11 02:47:34;;;;;;;10.18;2.20;;;;;;;;;;5054425;28;20045;-73
2022/11/11 02:50:01;;;;;;;6.15;1.98;;;;;;;;;;5053683;28;20510;-73
2022/11/11 02:52:27;;;;;;;10.38;2.40;;;;;;;;;;5054292;28;20048;-73
2022/11/11 02:54:54;;;;;;;8.70;2.60;;;;;;;;;;5053959;28;20049;-73
2022/11/11 02:57:21;;;;;;;5.55;1.70;;;;;;;;;;5053879;28;20676;-72
2022/11/11 02:59:47;;;;;;;10.77;2.10;;;;;;;;;;5054293;28;20060;-72
2022/11/11 03:02:14;;;;;;;9.65;1.77;;;;;;;;;;5053993;28;20400;-72
2022/11/11 03:04:41;;;;;;;8.55;1.60;;;;;;;;;;5053959;28;20037;-73
2022/11/11 03:07:07;;;;;;;8.55;1.70;;;;;;;;;;5053763;28;20512;-72
2022/11/11 03:09:34;;;;;;;8.77;1.98;;;;;;;;;;5053679;28;20037;-72
2022/11/11 03:12:00;;;;;;;6.78;1.48;;;;;;;;;;5053890;28;20059;-72
2022/11/11 03:14:27;;;;;;;5.68;2.00;;;;;;;;;;5053598;28;20053;-72
2022/11/11 03:19:38;;;;;;;6.97;1.98;;;;;;;;;;5053669;28;20445;-72
2022/11/11 03:22:05;;;;;;;7.40;1.48;;;;;;;;;;5053407;28;20049;-72
2022/11/11 03:27:36;;;;;;;9.40;2.20;;;;;;;;;;5053598;28;20045;-72
2022/11/11 03:30:03;;;;;;;7.72;1.92;;;;;;;;;;5052594;28;20084;-72
2022/11/11 03:32:29;;;;;;;4.18;1.80;;;;;;;;;;5053288;28;20053;-72
2022/11/11 03:34:56;;;;;;;6.65;1.80;;;;;;;;;;5052992;28;20055;-72
2022/11/11 03:40:07;;;;;;;7.30;1.85;;;;;;;;;;5053415;28;20045;-72
2022/11/11 03:42:34;;;;;;;4.85;1.70;;;;;;;;;;5053067;28;20064;-72
2022/11/11 03:45:00;;;;;;;7.22;1.63;;;;;;;;;;5052923;28;20057;-73
2022/11/11 03:47:26;;;;;;;4.72;1.30;;;;;;;;;;5053055;28;20404;-73
2022/11/11 03:49:53;;;;;;;6.40;1.67;;;;;;;;;;5052938;28;20055;-72
2022/11/11 03:52:19;;;;;;;5.97;1.73;;;;;;;;;;5052988;28;20056;-72
2022/11/11 03:54:45;;;;;;;6.57;1.85;;;;;;;;;;5052901;28;20081;-72
2022/11/11 03:57:30;;;;;;;7.68;1.40;;;;;;;;;;5052823;28;20447;-72
2022/11/11 03:59:56;;;;;;;6.63;1.65;;;;;;;;;;5052767;28;20131;-72
2022/11/11 04:10:37;;;;;;;7.38;1.90;;;;;;;;;;5052836;28;20053;-73
2022/11/11 04:16:08;;;;;;;5.75;1.30;;;;;;;;;;5052408;28;20045;-73
2022/11/11 04:25:47;;;;;;;5.60;1.58;;;;;;;;;;5052631;28;20049;-73
2022/11/11 04:26:55;;;;;;;9.52;1.58;;;;;;;;;;5052555;28;20049;-73
2022/11/11 04:29:28;;;;;;;3.78;1.48;;;;;;;;;;5052213;28;20052;-73
2022/11/11 04:34:40;;;;;;;7.05;1.45;;;;;;;;;;5051950;28;20065;-73
2022/11/11 04:37:06;;;;;;;5.28;1.13;;;;;;;;;;5050792;28;20049;-73
2022/11/11 04:42:18;;;;;;;3.53;1.00;;;;;;;;;;5051940;28;20048;-73
2022/11/11 04:47:29;;;;;;;4.05;0.98;;;;;;;;;;5052199;28;20053;-73
2022/11/11 04:49:56;;;;;;;6.03;1.08;;;;;;;;;;5051810;28;20045;-73
2022/11/11 04:52:25;;;;;;;4.20;1.10;;;;;;;;;;5052176;28;20052;-73
2022/11/11 04:57:47;;;;;;;5.35;1.42;;;;;;;;;;5051776;28;20073;-73
2022/11/11 05:00:15;;;;;;;4.00;1.65;;;;;;;;;;5051626;28;20048;-73
2022/11/11 05:05:27;;;;;;;6.93;1.45;;;;;;;;;;5051927;28;20049;-73
2022/11/11 05:10:39;;;;;;;4.50;1.40;;;;;;;;;;5051801;28;20049;-73
2022/11/11 05:21:25;;;;;;;7.57;1.33;;;;;;;;;;5026078;28;20048;-73
2022/11/11 05:26:36;;;;;;;9.20;1.90;;;;;;;;;;5051528;28;20051;-72
2022/11/11 05:29:03;;;;;;;7.53;1.60;;;;;;;;;;5051444;28;20045;-72
2022/11/11 05:31:29;;;;;;;5.88;1.48;;;;;;;;;;5051644;28;20049;-72
2022/11/11 05:33:56;;;;;;;3.80;1.25;;;;;;;;;;5051323;28;20055;-72
2022/11/11 05:36:22;;;;;;;5.63;1.30;;;;;;;;;;5049996;28;20045;-73
2022/11/11 05:38:48;;;;;;;5.60;1.38;;;;;;;;;;5050189;28;20404;-72
2022/11/11 05:41:15;;;;;;;8.35;1.88;;;;;;;;;;5051482;28;20053;-73
2022/11/11 05:43:41;;;;;;;5.40;1.42;;;;;;;;;;5051162;28;20041;-73
2022/11/11 05:46:07;;;;;;;2.90;1.00;;;;;;;;;;5051513;28;20067;-72
2022/11/11 05:48:34;;;;;;;6.55;1.40;;;;;;;;;;5051116;28;20052;-71
2022/11/11 05:51:00;;;;;;;3.75;1.27;;;;;;;;;;5051611;28;20053;-73
2022/11/11 05:53:27;;;;;;;4.25;1.10;;;;;;;;;;5052375;28;20049;-72
2022/11/11 05:55:53;;;;;;;6.13;0.90;;;;;;;;;;5053939;28;20489;-71
2022/11/11 05:58:20;;;;;;;7.63;1.30;;;;;;;;;;5055319;28;20408;-73
2022/11/11 06:00:46;;;;;;;8.57;1.48;;;;;;;;;;5054945;28;20048;-72
2022/11/11 06:03:13;;;;;;;4.28;1.15;;;;;;;;;;5055050;28;20067;-72
2022/11/11 06:05:39;;;;;;;4.50;1.33;;;;;;;;;;5054963;28;20473;-73
2022/11/11 06:08:05;;;;;;;7.95;1.27;;;;;;;;;;5054899;28;20493;-72
2022/11/11 06:10:32;;;;;;;8.95;1.60;;;;;;;;;;5054777;28;20059;-73
2022/11/11 06:13:03;;;;;;;4.53;1.10;;;;;;;;;;5055106;28;20055;-73
2022/11/11 06:15:31;;;;;;;10.85;1.75;;;;;;;;;;5055120;28;20084;-72
2022/11/11 06:17:58;;;;;;;6.43;1.48;;;;;;;;;;5055013;28;20420;-73
2022/11/11 06:20:24;;;;;;;3.75;1.48;;;;;;;;;;5053760;28;20078;-72
2022/11/11 06:22:56;;;;;;;7.57;1.60;;;;;;;;;;5054482;28;20404;-72
2022/11/11 06:28:09;;;;;;;8.95;2.10;;;;;;;;;;5054517;28;20484;-72
2022/11/11 06:30:36;;;;;;;8.82;2.22;;;;;;;;;;5054829;28;20053;-73
2022/11/11 06:33:16;;;;;;;8.93;1.90;;;;;;;;;;5054353;28;20053;-73
2022/11/11 06:35:42;;;;;;;8.15;1.90;;;;;;;;;;5054576;28;20045;-72
2022/11/11 06:38:09;;;;;;;10.18;1.75;;;;;;;;;;5053289;28;20057;-73
2022/11/11 06:40:35;;;;;;;10.25;1.67;;;;;;;;;;5054294;28;20568;-72
2022/11/11 06:43:01;;;;;;;5.50;1.80;;;;;;;;;;5054465;28;20137;-72
2022/11/11 06:45:28;;;;;;;10.18;2.08;;;;;;;;;;5054283;28;20116;-72
2022/11/11 06:47:55;;;;;;;8.05;1.83;;;;;;;;;;5054453;28;20049;-73
2022/11/11 06:50:21;;;;;;;6.65;1.95;;;;;;;;;;5054238;28;20051;-72
2022/11/11 06:52:48;;;;;;;9.77;1.83;;;;;;;;;;5054268;28;20059;-72
2022/11/11 06:55:14;;;;;;;7.55;2.10;;;;;;;;;;5054246;28;20049;-72
2022/11/11 06:57:41;;;;;;;8.55;2.22;;;;;;;;;;5054294;28;20148;-72
2022/11/11 07:00:07;;;;;;;6.93;1.83;;;;;;;;;;5053848;28;20048;-73
2022/11/11 07:02:34;;;;;;;5.43;1.20;;;;;;;;;;5054108;28;20057;-73
2022/11/11 07:05:00;;;;;;;6.35;1.55;;;;;;;;;;5053730;28;20063;-72
2022/11/11 07:07:27;;;;;;;3.75;1.30;;;;;;;;;;5054089;28;20051;-73
2022/11/11 07:09:54;;;;;;;6.15;1.67;;;;;;;;;;5053749;28;20059;-73
2022/11/11 07:12:21;;;;;;;5.25;1.33;;;;;;;;;;5053780;28;20049;-73
2022/11/11 07:14:47;;;;;;;8.45;1.98;;;;;;;;;;5053698;28;20063;-74
2022/11/11 07:17:14;;;;;;;5.32;1.58;;;;;;;;;;5052306;28;20068;-73
2022/11/11 07:19:40;;;;;;;4.93;1.38;;;;;;;;;;5053558;28;20048;-73
2022/11/11 07:22:07;;;;;;;4.88;1.48;;;;;;;;;;5053778;28;20060;-73
2022/11/11 07:24:33;;;;;;;6.28;1.80;;;;;;;;;;5053584;28;20045;-73
2022/11/11 07:27:00;;;;;;;4.03;1.20;;;;;;;;;;5053789;28;20041;-74
2022/11/11 07:29:28;;;;;;;5.95;1.45;;;;;;;;;;5053581;28;20049;-73
2022/11/11 07:31:54;;;;;;;5.93;1.90;;;;;;;;;;5051897;28;20080;-75
2022/11/11 07:34:20;;;;;;;6.35;1.60;;;;;;;;;;5045464;28;20063;-73
2022/11/11 07:36:47;;;;;;;8.30;1.30;;;;;;;;;;5053382;28;20044;-74
2022/11/11 07:39:13;;;;;;;3.35;1.60;;;;;;;;;;5053323;28;20052;-75
2022/11/11 07:41:40;;;;;;;4.90;1.17;;;;;;;;;;5053076;28;20049;-73
2022/11/11 07:44:06;;;;;;;4.53;1.17;;;;;;;;;;5053334;28;20071;-74
2022/11/11 07:46:32;;;;;;;5.90;1.70;;;;;;;;;;5052948;28;20049;-73
2022/11/11 07:48:59;;;;;;;6.57;1.70;;;;;;;;;;5053301;28;20049;-73
2022/11/11 07:51:25;;;;;;;4.65;1.38;;;;;;;;;;5052964;28;20056;-74
2022/11/11 07:53:51;;;;;;;7.85;1.88;;;;;;;;;;5052827;28;20045;-74
2022/11/11 07:56:18;;;;;;;5.38;1.48;;;;;;;;;;5048763;28;20486;-72
2022/11/11 07:58:44;;;;;;;6.15;1.38;;;;;;;;;;5041453;28;20049;-72
2022/11/11 08:01:10;;;;;;;4.90;1.42;;;;;;;;;;5051075;28;20068;-72
2022/11/11 08:03:48;;;;;;;5.32;1.70;;;;;;;;;;5050700;28;20049;-73
2022/11/11 08:06:14;;;;;;;;;;;;;;;;;;5051350;28;20088;-72
2022/11/11 08:08:41;;;;;;;8.57;1.52;;;;;;;;;;5050867;28;19975;-75
2022/11/11 08:11:07;;;;;;;7.82;1.98;;;;;;;;;;5052125;28;20045;-74
2022/11/11 08:13:40;;;;;;;6.35;1.70;;;;;;;;;;5051963;28;20041;-73
2022/11/11 08:16:10;;;;;;;9.00;1.90;;;;;;;;;;5051977;28;20055;-74
2022/11/11 08:18:36;;;;;;;9.48;2.50;;;;;;;;;;5052416;28;20055;-74
2022/11/11 08:21:04;;;;;;;8.45;1.92;;;;;;;;;;5052630;28;20427;-75
2022/11/11 08:23:32;;;;;;;6.75;1.92;;;;;;;;;;5052160;28;20480;-75
2022/11/11 08:26:20;;;;;;;7.03;2.20;;;;;;;;;;5052120;28;20051;-75
2022/11/11 08:28:54;;;;;;;8.27;2.03;;;;;;;;;;5051077;28;20067;-75
2022/11/11 08:31:21;;;;;;;8.88;2.00;;;;;;;;;;5052465;28;20432;-72
2022/11/11 08:33:47;;;;;;;9.73;2.40;;;;;;;;;;5051993;28;20068;-72
2022/11/11 08:36:14;;;;;;;5.90;1.85;;;;;;;;;;5052199;28;20060;-74
2022/11/11 08:38:46;;;;;;;11.05;2.55;;;;;;;;;;5052090;28;20048;-73
2022/11/11 08:41:12;;;;;;;6.93;2.13;;;;;;;;;;5052319;28;20060;-73
2022/11/11 08:43:39;;;;;;;11.93;2.63;;;;;;;;;;5052186;28;20409;-74
2022/11/11 08:46:05;;;;;;;7.15;2.40;;;;;;;;;;5052239;28;20049;-73
2022/11/11 08:48:32;;;;;;;9.45;1.98;;;;;;;;;;5052167;28;20107;-73
2022/11/11 08:50:58;;;;;;;11.02;2.13;;;;;;;;;;5051891;28;20481;-73
2022/11/11 08:53:25;;;;;;;6.57;1.90;;;;;;;;;;5029167;28;20151;-73
2022/11/11 08:55:52;;;;;;;7.45;2.00;;;;;;;;;;5041444;28;20045;-73
2022/11/11 08:58:19;;;;;;;5.13;1.63;;;;;;;;;;5047581;28;20055;-73
2022/11/11 09:00:46;;;;;;;6.40;1.67;;;;;;;;;;5047642;28;20049;-72
2022/11/11 09:03:12;;;;;;;8.45;2.53;;;;;;;;;;5049944;28;20099;-72
2022/11/11 09:05:39;;;;;;;6.80;1.98;;;;;;;;;;5051300;28;20045;-73
2022/11/11 09:08:06;;;;;;;7.30;2.10;;;;;;;;;;5051329;28;20132;-73
2022/11/11 09:10:33;;;;;;;12.18;2.15;;;;;;;;;;5047826;28;20048;-73
2022/11/11 09:13:00;;;;;;;5.70;1.90;;;;;;;;;;5051086;28;20496;-73
2022/11/11 09:15:27;;;;;;;11.73;1.98;;;;;;;;;;5051026;28;20051;-72
2022/11/11 09:17:53;;;;;;;8.05;1.77;;;;;;;;;;5051285;28;20059;-73
2022/11/11 09:20:20;;;;;;;6.65;1.95;;;;;;;;;;5051240;28;20049;-73
2022/11/11 09:22:51;;;;;;;6.15;1.60;;;;;;;;;;5050689;28;20049;-73
2022/11/11 09:25:18;;;;;;;6.20;1.90;;;;;;;;;;5051250;28;20384;-73
2022/11/11 09:27:55;;;;;;;10.68;2.33;;;;;;;;;;5051350;28;20049;-73
2022/11/11 09:30:23;;;;;;;6.73;1.73;;;;;;;;;;5055132;28;20433;-73
2022/11/11 09:32:49;;;;;;;11.40;2.25;;;;;;;;;;5054775;28;20120;-73
2022/11/11 09:35:16;;;;;;;8.85;1.58;;;;;;;;;;5055296;28;20049;-74
2022/11/11 09:37:51;;;;;;;9.82;2.03;;;;;;;;;;5054975;28;20064;-73
2022/11/11 09:40:20;;;;;;;6.05;1.58;;;;;;;;;;5055001;28;20052;-73
2022/11/11 09:43:01;;;;;;;9.88;2.00;;;;;;;;;;5055013;28;20152;-73
2022/11/11 09:45:35;;;;;;;7.78;1.90;;;;;;;;;;5054988;28;20132;-74
2022/11/11 09:48:24;;;;;;;10.30;2.10;;;;;;;;;;5042586;28;20493;-73
2022/11/11 09:50:53;;;;;;;8.70;1.88;;;;;;;;;;5031289;28;20048;-73
2022/11/11 09:53:41;;;;;;;5.85;1.60;;;;;;;;;;5054920;28;20059;-79
2022/11/11 09:56:10;;;;;;;7.95;2.00;;;;;;;;;;5054851;28;20053;-72
2022/11/11 09:59:16;;;;;;;7.60;1.80;;;;;;;;;;5054803;28;20048;-74
2022/11/11 10:01:45;;;;;;;4.78;1.75;;;;;;;;;;5052482;28;20053;-74
2022/11/11 10:04:30;;;;;;;9.68;1.88;;;;;;;;;;5054349;28;20052;-73
2022/11/11 10:07:01;;;;;;;11.85;2.00;;;;;;;;;;5054299;28;20049;-73
2022/11/11 10:09:40;;;;;;;7.07;1.55;;;;;;;;;;5054709;28;20045;-74
2022/11/11 10:12:09;;;;;;;7.05;2.05;;;;;;;;;;5054486;28;20049;-73
2022/11/11 10:14:38;;;;;;;6.97;1.63;;;;;;;;;;5052971;28;20488;-73
2022/11/11 10:17:23;;;;;;;7.75;1.70;;;;;;;;;;5054418;28;20052;-74
2022/11/11 10:19:58;;;;;;;9.55;1.98;;;;;;;;;;5054421;28;20053;-74
2022/11/11 10:22:33;;;;;;;7.25;1.80;;;;;;;;;;5054100;28;20072;-74
2022/11/11 10:25:12;;;;;;;7.90;2.05;;;;;;;;;;5052580;28;20051;-74
2022/11/11 10:27:42;;;;;;;7.28;2.15;;;;;;;;;;5053086;28;20408;-74
2022/11/11 10:30:15;;;;;;;9.05;2.03;;;;;;;;;;5052869;28;20059;-74
2022/11/11 10:32:41;;;;;;;10.73;2.08;;;;;;;;;;5053724;28;20504;-74
2022/11/11 10:35:16;;;;;;;8.50;1.88;;;;;;;;;;5052559;28;20049;-73
2022/11/11 10:37:43;;;;;;;12.32;2.20;;;;;;;;;;5053856;28;20053;-73
2022/11/11 10:40:24;;;;;;;5.53;1.50;;;;;;;;;;5053530;28;20077;-73
2022/11/11 10:42:51;;;;;;;11.13;1.70;;;;;;;;;;5053823;28;20052;-74
2022/11/11 10:45:26;;;;;;;10.52;2.28;;;;;;;;;;5053906;28;20052;-74
2022/11/11 10:47:57;;;;;;;12.25;1.95;;;;;;;;;;5042481;28;20402;-75
2022/11/11 10:50:39;;;;;;;7.03;1.75;;;;;;;;;;5052314;28;20049;-74
2022/11/11 10:53:12;;;;;;;8.93;1.75;;;;;;;;;;5053495;28;20529;-74
2022/11/11 10:55:55;;;;;;;5.85;1.50;;;;;;;;;;5050434;28;20049;-74
2022/11/11 10:58:29;;;;;;;5.32;1.80;;;;;;;;;;5034402;28;20136;-73
2022/11/11 11:00:56;;;;;;;6.38;1.52;;;;;;;;;;5051416;28;20049;-73
2022/11/11 11:03:34;;;;;;;6.65;1.73;;;;;;;;;;5053184;28;20451;-74
2022/11/11 11:06:00;;;;;;;;;;;;;;;;;;5052831;28;20049;-73
2022/11/11 11:08:29;;;;;;;5.70;1.63;;;;;;;;;;5053373;28;19925;-73
2022/11/11 11:10:57;;;;;;;10.57;1.45;;;;;;;;;;5051910;28;20041;-73
2022/11/11 11:13:42;;;;;;;8.05;1.95;;;;;;;;;;5046060;28;20524;-76
2022/11/11 11:16:12;;;;;;;6.28;1.08;;;;;;;;;;5032017;28;20448;-73
2022/11/11 11:18:38;;;;;;;5.78;1.38;;;;;;;;;;5050404;28;20044;-73
2022/11/11 11:21:09;;;;;;;8.98;1.83;;;;;;;;;;5052349;28;20053;-73
2022/11/11 11:23:35;;;;;;;5.07;1.63;;;;;;;;;;5051819;28;20049;-74
2022/11/11 11:26:04;;;;;;;5.78;1.05;;;;;;;;;;5051969;28;20059;-73
2022/11/11 11:28:31;;;;;;;6.43;1.42;;;;;;;;;;5052128;28;20397;-73
2022/11/11 11:30:59;;;;;;;7.83;1.27;;;;;;;;;;5053556;28;20041;-73
2022/11/11 11:33:25;;;;;;;5.55;1.33;;;;;;;;;;5052076;28;20063;-73
2022/11/11 11:35:52;;;;;;;6.35;1.48;;;;;;;;;;5053275;28;20059;-73
2022/11/11 11:38:18;;;;;;;8.00;1.35;;;;;;;;;;5053472;28;20443;-73
2022/11/11 11:40:45;;;;;;;5.38;1.30;;;;;;;;;;5053162;28;20497;-74
2022/11/11 11:43:32;;;;;;;7.05;1.10;;;;;;;;;;5051706;28;20513;-73
2022/11/11 11:45:59;;;;;;;4.65;1.13;;;;;;;;;;5051905;28;20412;-73
2022/11/11 11:48:52;;;;;;;5.45;1.52;;;;;;;;;;5053329;28;20116;-73
2022/11/11 11:51:30;;;;;;;6.22;0.85;;;;;;;;;;5050898;28;20049;-74
2022/11/11 11:54:15;;;;;;;5.43;1.38;;;;;;;;;;5053203;28;20048;-73
2022/11/11 11:56:47;;;;;;;9.13;1.27;;;;;;;;;;5052843;28;20059;-73
2022/11/11 11:59:20;;;;;;;6.00;1.23;;;;;;;;;;5053084;28;20048;-73
2022/11/11 12:01:58;;;;;;;4.82;0.80;;;;;;;;;;5052523;28;20052;-73
2022/11/11 12:04:25;;;;;;;6.70;1.27;;;;;;;;;;5052738;28;20047;-73
2022/11/11 12:07:13;;;;;;;5.53;1.55;;;;;;;;;;5041329;28;20056;-73
2022/11/11 12:09:46;;;;;;;5.65;1.13;;;;;;;;;;5030632;28;20049;-73
2022/11/11 12:12:21;;;;;;;6.88;1.02;;;;;;;;;;5032010;28;20048;-73
2022/11/11 12:15:11;;;;;;;6.03;1.00;;;;;;;;;;5052169;28;20048;-73
2022/11/11 12:17:37;;;;;;;6.10;1.05;;;;;;;;;;5032829;28;20053;-74
2022/11/11 12:20:10;;;;;;;5.13;1.00;;;;;;;;;;5036672;28;20057;-73
2022/11/11 12:22:39;;;;;;;5.40;1.10;;;;;;;;;;5031949;28;20053;-74
2022/11/11 12:25:21;;;;;;;6.05;1.23;;;;;;;;;;5031281;28;20105;-73
2022/11/11 12:28:00;;;;;;;8.15;1.30;;;;;;;;;;5031433;28;20041;-74
2022/11/11 12:30:28;;;;;;;9.07;1.30;;;;;;;;;;5031508;28;20048;-74
2022/11/11 12:33:14;;;;;;;6.57;1.20;;;;;;;;;;5031400;28;20054;-73
2022/11/11 12:35:47;;;;;;;6.63;1.63;;;;;;;;;;5035149;28;20040;-73
2022/11/11 12:38:21;;;;;;;6.10;1.10;;;;;;;;;;5032856;28;20049;-73
2022/11/11 12:41:06;;;;;;;8.63;1.33;;;;;;;;;;5051640;28;20128;-74
2022/11/11 12:43:36;;;;;;;9.05;1.20;;;;;;;;;;5051674;28;20045;-74
2022/11/11 12:46:05;;;;;;;8.23;1.25;;;;;;;;;;5051466;28;20051;-73
2022/11/11 12:48:35;;;;;;;5.35;1.23;;;;;;;;;;5050162;28;20053;-74
2022/11/11 12:51:16;;;;;;;9.05;1.25;;;;;;;;;;5051299;28;20055;-74
2022/11/11 12:53:52;;;;;;;6.10;1.20;;;;;;;;;;5041399;28;20926;-73
2022/11/11 12:56:41;;;;;;;5.20;1.33;;;;;;;;;;5031232;28;20401;-73
2022/11/11 12:59:26;;;;;;;4.70;1.23;;;;;;;;;;5030890;28;20060;-73
2022/11/11 13:01:56;;;;;;;3.83;1.23;;;;;;;;;;5030625;28;20055;-73
2022/11/11 13:04:30;;;;;;;8.13;1.73;;;;;;;;;;5030809;28;20060;-72
2022/11/11 13:07:00;;;;;;;3.47;1.00;;;;;;;;;;5030821;28;20052;-73
2022/11/11 13:09:56;;;;;;;6.72;1.27;;;;;;;;;;5031030;28;20128;-73
2022/11/11 13:12:28;;;;;;;8.02;1.10;;;;;;;;;;5042556;28;20048;-74
2022/11/11 13:15:03;;;;;;;4.68;1.15;;;;;;;;;;5051051;28;20555;-74
2022/11/11 13:17:30;;;;;;;7.35;1.27;;;;;;;;;;5051103;28;20049;-74
2022/11/11 13:19:59;;;;;;;6.13;1.27;;;;;;;;;;5050899;28;20049;-74
2022/11/11 13:22:26;;;;;;;5.30;1.52;;;;;;;;;;5049712;28;20519;-74
2022/11/11 13:24:53;;;;;;;;;;;;;;;;;;5051557;28;20443;-74
2022/11/11 13:27:41;;;;;;;3.25;0.98;;;;;;;;;;5039592;28;20011;-71
2022/11/11 13:30:14;;;;;;;4.80;1.73;;;;;;;;;;5041765;28;20416;-72
2022/11/11 13:32:46;;;;;;;3.75;0.90;;;;;;;;;;5030333;28;20047;-72
2022/11/11 13:35:18;;;;;;;4.88;0.95;;;;;;;;;;5030851;28;20061;-72
2022/11/11 13:37:45;;;;;;;3.75;1.45;;;;;;;;;;5029544;28;20053;-71
2022/11/11 13:40:23;;;;;;;5.35;1.35;;;;;;;;;;5049217;28;20053;-71
2022/11/11 13:42:50;;;;;;;6.32;1.42;;;;;;;;;;5050881;28;20049;-71
2022/11/11 13:45:23;;;;;;;5.95;1.35;;;;;;;;;;5050960;28;20049;-72
2022/11/11 13:47:49;;;;;;;5.95;1.30;;;;;;;;;;5050633;28;20496;-71
2022/11/11 13:50:27;;;;;;;6.15;1.27;;;;;;;;;;5048199;28;20473;-71
2022/11/11 13:53:04;;;;;;;6.82;1.50;;;;;;;;;;5030790;28;20051;-72
2022/11/11 13:55:33;;;;;;;6.57;1.45;;;;;;;;;;5033549;28;20059;-71
2022/11/11 13:58:00;;;;;;;6.70;1.30;;;;;;;;;;5028491;28;20071;-71
2022/11/11 14:00:28;;;;;;;5.30;1.20;;;;;;;;;;5030325;28;20056;-71
2022/11/11 14:03:13;;;;;;;7.95;1.67;;;;;;;;;;5030700;28;20406;-71
2022/11/11 14:05:39;;;;;;;4.97;1.38;;;;;;;;;;5041081;28;20040;-70
2022/11/11 14:08:06;;;;;;;6.60;1.33;;;;;;;;;;5050629;28;20045;-71
2022/11/11 14:10:33;;;;;;;6.70;1.55;;;;;;;;;;5050794;28;20049;-71
2022/11/11 14:13:19;;;;;;;5.95;1.25;;;;;;;;;;5050631;28;20071;-71
2022/11/11 14:15:51;;;;;;;4.18;1.30;;;;;;;;;;5037366;28;20045;-71
2022/11/11 14:18:17;;;;;;;4.90;1.17;;;;;;;;;;5032722;28;20052;-71
2022/11/11 14:20:48;;;;;;;5.00;1.30;;;;;;;;;;5034186;28;20147;-71
2022/11/11 14:23:20;;;;;;;3.72;1.45;;;;;;;;;;5037420;28;20511;-72
2022/11/11 14:25:47;;;;;;;6.85;1.33;;;;;;;;;;5054097;28;20052;-71
2022/11/11 14:28:13;;;;;;;;;;;;;;;;;;5054361;28;20041;-71
2022/11/11 14:30:40;;;;;;;6.95;1.40;;;;;;;;;;5053602;28;20384;-71
2022/11/11 14:33:17;;;;;;;5.23;1.40;;;;;;;;;;5052407;28;20354;-71
2022/11/11 14:35:44;;;;;;;;;;;;;;;;;;5054101;28;20059;-71
2022/11/11 14:38:10;;;;;;;3.63;1.83;;;;;;;;;;5054021;28;19927;-71
2022/11/11 14:40:36;;;;;;;6.53;1.35;;;;;;;;;;5053701;28;20146;-70
2022/11/11 14:43:26;;;;;;;8.20;1.63;;;;;;;;;;5052537;28;20053;-72
2022/11/11 14:45:53;;;;;;;6.78;1.73;;;;;;;;;;5042916;28;20080;-70
2022/11/11 14:48:38;;;;;;;6.78;1.70;;;;;;;;;;5033577;28;20056;-71
2022/11/11 14:51:24;;;;;;;6.70;1.48;;;;;;;;;;5033412;28;20052;-71
2022/11/11 14:53:52;;;;;;;7.25;1.52;;;;;;;;;;5047104;28;20413;-71
2022/11/11 14:56:19;;;;;;;10.05;2.05;;;;;;;;;;5052396;28;20045;-70
2022/11/11 14:58:45;;;;;;;8.48;1.83;;;;;;;;;;5039033;28;20049;-70
2022/11/11 15:01:16;;;;;;;5.57;1.63;;;;;;;;;;5043218;28;20057;-71
2022/11/11 15:03:52;;;;;;;6.13;1.58;;;;;;;;;;5046541;28;20589;-71
2022/11/11 15:06:21;;;;;;;5.95;2.05;;;;;;;;;;5033074;28;20128;-70
2022/11/11 15:08:48;;;;;;;4.13;1.80;;;;;;;;;;5032925;28;20046;-70
2022/11/11 15:11:29;;;;;;;6.93;1.88;;;;;;;;;;5033049;28;20064;-70
2022/11/11 15:13:55;;;;;;;7.75;2.03;;;;;;;;;;5038913;28;20041;-71
2022/11/11 15:16:21;;;;;;;7.43;1.80;;;;;;;;;;5052145;28;20545;-71
2022/11/11 15:18:48;;;;;;;5.28;1.90;;;;;;;;;;5053511;28;20412;-71
2022/11/11 15:21:24;;;;;;;7.07;1.88;;;;;;;;;;5052381;28;20493;-71
2022/11/11 15:24:06;;;;;;;5.75;1.83;;;;;;;;;;5051775;28;20051;-72
2022/11/11 15:26:48;;;;;;;6.65;1.77;;;;;;;;;;5033981;28;20045;-71
2022/11/11 15:29:37;;;;;;;9.50;2.42;;;;;;;;;;5038381;28;20057;-71
2022/11/11 15:32:22;;;;;;;8.48;2.17;;;;;;;;;;5046528;28;20049;-72
2022/11/11 15:35:09;;;;;;;7.55;2.38;;;;;;;;;;5030203;28;20061;-72
2022/11/11 15:37:35;;;;;;;5.38;1.83;;;;;;;;;;5028526;28;20049;-73
2022/11/11 15:40:02;;;;;;;9.18;2.80;;;;;;;;;;5023380;28;20418;-71
2022/11/11 15:42:39;;;;;;;6.50;1.88;;;;;;;;;;5046233;28;20048;-71
2022/11/11 15:45:26;;;;;;;6.45;2.20;;;;;;;;;;5051670;28;20552;-71
2022/11/11 15:47:53;;;;;;;10.32;2.65;;;;;;;;;;5051493;28;20432;-71
2022/11/11 15:50:22;;;;;;;8.00;2.13;;;;;;;;;;5050333;28;20399;-71
2022/11/11 15:52:53;;;;;;;6.80;2.10;;;;;;;;;;5053180;28;20412;-71
2022/11/11 15:55:21;;;;;;;6.03;2.25;;;;;;;;;;5053294;28;20049;-71
2022/11/11 15:57:48;;;;;;;9.60;2.58;;;;;;;;;;5052647;28;20045;-71
2022/11/11 16:00:23;;;;;;;9.55;2.22;;;;;;;;;;5052685;28;20049;-71
2022/11/11 16:02:51;;;;;;;6.05;2.50;;;;;;;;;;5052625;28;20055;-71
2022/11/11 16:05:25;;;;;;;9.18;2.70;;;;;;;;;;5052800;28;20045;-71
2022/11/11 16:07:53;;;;;;;6.55;2.63;;;;;;;;;;5052678;28;20048;-71
2022/11/11 16:10:33;;;;;;;7.97;2.75;;;;;;;;;;5052727;28;20049;-71
2022/11/11 16:13:02;;;;;;;7.43;2.45;;;;;;;;;;5052495;28;20045;-71
2022/11/11 16:15:29;;;;;;;8.30;2.83;;;;;;;;;;5052881;28;20052;-71
2022/11/11 16:17:59;;;;;;;9.77;3.13;;;;;;;;;;5052691;28;20060;-71
2022/11/11 16:20:48;;;;;;;6.15;2.80;;;;;;;;;;5052774;28;20056;-71